Time;durP1;ratioP1;P1;durP2;ratioP2;P2;SDS_P1;SDS_P2;PMS_P1;PMS_P2;Temp;Humidity;BMP_temperature;BMP_pressure;BME280_temperature;BME280_humidity;BME280_pressure;Samples;Min_cycle;Max_cycle;Signal;HPM_P1;HPM_P2
2023/11/14 00:01:18;;;;;;;1.23;1.13;;;;;;;7.59;97.88;98753.06;5053670;28;20545;-72
2023/11/14 00:03:47;;;;;;;;;;;;;;;7.56;98.37;98755.59;5053539;28;20132;-70
2023/11/14 00:06:17;;;;;;;0.82;0.82;;;;;;;7.54;97.89;98744.63;5053121;28;20019;-70
2023/11/14 00:08:47;;;;;;;0.85;0.85;;;;;;;7.55;97.79;98731.09;5052996;28;20071;-69
2023/11/14 00:11:16;;;;;;;0.85;0.85;;;;;;;7.54;97.99;98729.38;5053076;28;20052;-69
2023/11/14 00:13:46;;;;;;;0.93;0.90;;;;;;;7.56;97.83;98729.41;5053313;28;20041;-68
2023/11/14 00:16:15;;;;;;;5.82;0.95;;;;;;;7.54;98.00;98709.06;5053242;28;20071;-70
2023/11/14 00:18:45;;;;;;;0.63;0.63;;;;;;;7.59;97.58;98717.50;5053154;28;20132;-67
2023/11/14 00:21:13;;;;;;;1.15;1.05;;;;;;;7.61;97.85;98698.03;5052968;28;20037;-70
2023/11/14 00:23:42;;;;;;;1.10;0.97;;;;;;;7.65;98.02;98711.56;5052951;28;20510;-68
2023/11/14 00:26:11;;;;;;;1.10;1.03;;;;;;;7.65;98.05;98714.97;5052991;28;20040;-69
2023/11/14 00:28:43;;;;;;;1.13;1.05;;;;;;;7.67;97.81;98718.34;5053166;28;20627;-70
2023/11/14 00:31:15;;;;;;;3.03;1.90;;;;;;;7.70;98.57;98723.38;5053179;28;20110;-68
2023/11/14 00:33:44;;;;;;;2.08;1.75;;;;;;;7.72;97.97;98728.47;5051708;28;20057;-69
2023/11/14 00:36:12;;;;;;;0.88;0.85;;;;;;;7.74;98.45;98737.75;5054982;28;20049;-70
2023/11/14 00:38:41;;;;;;;0.70;0.70;;;;;;;7.75;97.72;98749.59;5055319;28;20128;-68
2023/11/14 00:41:10;;;;;;;1.58;1.48;;;;;;;7.74;98.57;98747.94;5057002;28;20033;-69
2023/11/14 00:43:39;;;;;;;0.90;0.90;;;;;;;7.77;98.45;98753.00;5056388;28;20065;-68
2023/11/14 00:46:13;;;;;;;2.03;1.55;;;;;;;7.79;98.42;98746.22;5056351;28;20491;-70
2023/11/14 00:48:43;;;;;;;2.35;1.88;;;;;;;7.81;98.36;98759.75;5055465;28;20045;-68
2023/11/14 00:51:12;;;;;;;0.73;0.73;;;;;;;7.82;98.04;98766.50;5055124;28;20048;-69
2023/11/14 00:53:40;;;;;;;1.23;1.13;;;;;;;7.71;98.34;98753.00;5056260;28;20052;-69
2023/11/14 00:56:12;;;;;;;2.90;1.08;;;;;;;7.84;97.99;98769.91;5055429;28;20041;-70
2023/11/14 00:58:42;;;;;;;2.30;2.10;;;;;;;7.79;98.17;98764.00;5056151;28;20449;-68
2023/11/14 01:01:14;;;;;;;0.60;0.60;;;;;;;7.84;98.31;98757.19;5056390;28;20437;-68
2023/11/14 01:03:43;;;;;;;1.10;1.05;;;;;;;7.80;98.67;98752.97;5056332;28;20560;-71
2023/11/14 01:06:12;;;;;;;1.83;1.70;;;;;;;7.73;97.95;98740.28;5055920;28;20063;-70
2023/11/14 01:08:42;;;;;;;1.58;1.38;;;;;;;7.81;98.28;98754.66;5056073;28;20510;-69
2023/11/14 01:11:11;;;;;;;1.17;1.08;;;;;;;7.84;99.04;98769.03;5055909;28;20045;-70
2023/11/14 01:13:40;;;;;;;0.82;0.80;;;;;;;7.82;99.23;98756.34;5054602;28;20041;-69
2023/11/14 01:16:15;;;;;;;3.10;1.47;;;;;;;7.82;98.55;98745.34;5056073;28;20530;-69
2023/11/14 01:18:44;;;;;;;1.05;1.00;;;;;;;7.80;98.38;98737.72;5055736;28;20041;-68
2023/11/14 01:21:16;;;;;;;1.20;0.90;;;;;;;7.84;99.04;98736.88;5054673;28;20049;-69
2023/11/14 01:23:45;;;;;;;2.83;1.52;;;;;;;7.86;98.62;98707.22;5055729;28;20564;-70
2023/11/14 01:26:15;;;;;;;1.33;1.13;;;;;;;7.86;98.99;98697.06;5055541;28;20480;-68
2023/11/14 01:28:44;;;;;;;0.40;0.40;;;;;;;7.79;98.61;98685.25;5055420;28;20048;-68
2023/11/14 01:31:22;;;;;;;0.70;0.70;;;;;;;7.88;98.67;98690.28;5055841;28;20138;-69
2023/11/14 01:33:52;;;;;;;0.77;0.77;;;;;;;7.94;99.01;98690.22;5054593;28;20056;-69
2023/11/14 01:36:21;;;;;;;0.50;0.50;;;;;;;7.97;98.55;98699.53;5055389;28;20048;-69
2023/11/14 01:38:51;;;;;;;2.03;1.83;;;;;;;8.00;98.86;98710.53;5054745;28;20045;-68
2023/11/14 01:41:20;;;;;;;1.38;1.23;;;;;;;8.04;99.33;98707.09;5055158;28;20041;-69
2023/11/14 01:43:49;;;;;;;1.50;1.40;;;;;;;8.00;98.98;98694.44;5055341;28;20049;-68
2023/11/14 01:46:19;;;;;;;1.63;1.52;;;;;;;7.89;98.85;98671.63;5054155;28;20045;-70
2023/11/14 01:48:51;;;;;;;1.70;1.42;;;;;;;8.07;99.12;98704.53;5055026;28;20057;-70
2023/11/14 01:51:24;;;;;;;1.00;0.90;;;;;;;8.08;99.30;98703.72;5055001;28;20399;-70
2023/11/14 01:53:56;;;;;;;1.20;1.13;;;;;;;8.09;99.48;98695.22;5054362;28;20037;-68
2023/11/14 01:56:25;;;;;;;2.10;1.95;;;;;;;8.11;99.11;98696.03;5054163;28;20570;-68
2023/11/14 01:58:54;;;;;;;2.08;1.77;;;;;;;8.13;98.91;98689.25;5053770;28;20051;-68
2023/11/14 02:01:23;;;;;;;0.98;0.98;;;;;;;8.16;99.18;98685.03;5053699;28;20099;-70
2023/11/14 02:03:54;;;;;;;1.27;1.17;;;;;;;8.17;99.53;98691.78;5053979;28;20487;-71
2023/11/14 02:06:23;;;;;;;1.88;1.60;;;;;;;8.11;99.42;98688.41;5053681;28;20049;-70
2023/11/14 02:08:54;;;;;;;0.70;0.70;;;;;;;8.18;99.96;98704.50;5055101;28;20247;-71
2023/11/14 02:11:24;;;;;;;1.02;1.02;;;;;;;8.19;99.28;98705.31;5054747;28;20099;-68
2023/11/14 02:13:53;;;;;;;0.50;0.50;;;;;;;8.19;99.86;98711.25;5070247;28;20033;-71
2023/11/14 02:16:24;;;;;;;0.88;0.85;;;;;;;8.20;99.25;98707.84;5053487;28;20045;-70
2023/11/14 02:18:54;;;;;;;1.48;0.95;;;;;;;8.21;99.80;98713.75;5053767;28;20106;-69
2023/11/14 02:21:25;;;;;;;2.92;2.63;;;;;;;8.20;99.88;98727.34;5053408;28;20053;-69
2023/11/14 02:23:55;;;;;;;0.85;0.85;;;;;;;8.21;99.77;98734.09;5053853;28;20049;-70
2023/11/14 02:26:25;;;;;;;2.17;1.98;;;;;;;8.18;99.00;98729.06;5053266;28;20045;-71
2023/11/14 02:28:58;;;;;;;1.52;1.42;;;;;;;8.16;99.47;98751.09;5054576;28;20376;-71
2023/11/14 02:31:29;;;;;;;0.98;0.88;;;;;;;8.18;100.00;98751.94;5053415;28;20552;-68
2023/11/14 02:33:58;;;;;;;1.65;1.13;;;;;;;8.18;99.22;98752.78;5053420;28;20399;-70
2023/11/14 02:36:31;;;;;;;1.52;1.42;;;;;;;8.13;99.84;98746.88;5054236;28;20132;-69
2023/11/14 02:39:02;;;;;;;1.92;1.75;;;;;;;8.21;99.95;98759.50;5053096;28;20055;-70
2023/11/14 02:41:34;;;;;;;2.35;2.15;;;;;;;8.09;99.67;98728.25;5054186;28;20079;-68
2023/11/14 02:44:02;;;;;;;1.00;0.90;;;;;;;8.26;100.00;98757.78;5054097;28;20053;-71
2023/11/14 02:46:32;;;;;;;2.50;1.98;;;;;;;8.27;99.72;98769.69;5054401;28;20044;-70
2023/11/14 02:49:20;;;;;;;1.40;1.30;;;;;;;8.26;100.00;98827.28;5052963;28;20044;-69
2023/11/14 02:51:49;;;;;;;2.13;1.52;;;;;;;8.26;99.56;98851.81;5052660;28;20049;-68
2023/11/14 02:54:18;;;;;;;3.25;2.03;;;;;;;8.25;100.00;98847.63;5053878;28;20044;-69
2023/11/14 02:56:50;;;;;;;3.30;1.63;;;;;;;8.26;99.46;98819.66;5053918;28;20049;-67
2023/11/14 02:59:19;;;;;;;2.28;2.00;;;;;;;8.24;100.00;98792.53;5053685;28;20045;-69
2023/11/14 03:01:47;;;;;;;3.05;2.78;;;;;;;8.26;100.00;98755.25;5054199;28;20049;-70
2023/11/14 03:04:17;;;;;;;2.90;2.65;;;;;;;8.22;99.96;98756.13;5054055;28;20086;-70
2023/11/14 03:06:46;;;;;;;2.13;1.48;;;;;;;8.20;99.72;98727.34;5053996;28;20422;-68
2023/11/14 03:09:15;;;;;;;6.43;3.17;;;;;;;8.17;100.00;98733.28;5052465;28;20491;-70
2023/11/14 03:11:43;;;;;;;1.35;1.25;;;;;;;8.06;100.00;98735.06;5069249;28;20055;-70
2023/11/14 03:14:14;;;;;;;1.33;1.23;;;;;;;8.23;100.00;98773.06;5052364;28;20041;-68
2023/11/14 03:16:43;;;;;;;3.03;2.35;;;;;;;8.22;100.00;98781.53;5052560;28;20052;-70
2023/11/14 03:19:12;;;;;;;6.00;1.45;;;;;;;8.22;100.00;98768.84;5053857;28;20075;-69
2023/11/14 03:21:44;;;;;;;4.25;3.17;;;;;;;8.23;100.00;98757.81;5052360;28;20033;-70
2023/11/14 03:24:13;;;;;;;2.67;1.80;;;;;;;8.23;100.00;98747.66;5052733;28;20452;-68
2023/11/14 03:26:42;;;;;;;1.83;1.73;;;;;;;8.24;100.00;98750.19;5053493;28;20041;-70
2023/11/14 03:29:11;;;;;;;2.97;2.00;;;;;;;8.25;100.00;98766.28;5053322;28;20549;-68
2023/11/14 03:31:41;;;;;;;3.40;1.60;;;;;;;8.26;100.00;98755.25;5053551;28;20064;-69
2023/11/14 03:34:10;;;;;;;3.85;2.42;;;;;;;8.24;100.00;98759.50;5054085;28;20053;-69
2023/11/14 03:36:39;;;;;;;2.00;1.83;;;;;;;8.26;99.84;98734.91;5052463;28;20119;-70
2023/11/14 03:39:08;;;;;;;5.15;3.42;;;;;;;8.25;100.00;98731.53;5053723;28;20302;-70
2023/11/14 03:41:38;;;;;;;2.22;1.70;;;;;;;8.23;100.00;98714.63;5053301;28;20047;-68
2023/11/14 03:44:08;;;;;;;1.13;1.02;;;;;;;8.22;99.95;98695.13;5054221;28;20053;-69
2023/11/14 03:46:36;;;;;;;1.00;0.93;;;;;;;8.19;100.00;98680.75;5053217;28;20045;-69
2023/11/14 03:49:07;;;;;;;3.63;2.60;;;;;;;8.20;100.00;98696.84;5053559;28;20151;-70
2023/11/14 03:51:35;;;;;;;1.17;1.08;;;;;;;8.05;100.00;98697.78;5053145;28;20052;-68
2023/11/14 03:54:04;;;;;;;1.65;1.35;;;;;;;8.17;100.00;98725.66;5053239;28;20051;-69
2023/11/14 03:56:33;;;;;;;1.08;0.98;;;;;;;8.15;99.96;98701.97;5053420;28;20391;-68
2023/11/14 03:59:02;;;;;;;3.30;2.20;;;;;;;8.11;100.00;98695.19;5068706;28;20132;-71
2023/11/14 04:01:31;;;;;;;1.30;1.20;;;;;;;8.15;100.00;98688.41;5052221;28;20290;-68
2023/11/14 04:04:00;;;;;;;2.58;2.15;;;;;;;8.18;100.00;98724.81;5052237;28;20557;-69
2023/11/14 04:06:30;;;;;;;3.10;2.80;;;;;;;8.19;100.00;98745.97;5053057;28;20051;-69
2023/11/14 04:08:59;;;;;;;2.30;1.30;;;;;;;8.17;100.00;98727.34;5052947;28;20372;-69
2023/11/14 04:11:28;;;;;;;2.10;1.80;;;;;;;8.17;100.00;98743.44;5055827;28;20044;-69
2023/11/14 04:13:57;;;;;;;1.83;1.73;;;;;;;8.18;100.00;98757.00;5057041;28;20823;-69
2023/11/14 04:16:26;;;;;;;2.70;2.43;;;;;;;8.18;100.00;98739.22;5057185;28;20128;-69
2023/11/14 04:18:55;;;;;;;2.33;2.13;;;;;;;8.21;100.00;98754.41;5055666;28;20045;-69
2023/11/14 04:21:24;;;;;;;1.03;0.97;;;;;;;8.16;100.00;98761.25;5056843;28;20394;-70
2023/11/14 04:23:55;;;;;;;1.73;1.58;;;;;;;8.28;100.00;98766.31;5056823;28;20041;-69
2023/11/14 04:26:24;;;;;;;7.63;4.75;;;;;;;8.17;100.00;98753.63;5055487;28;20045;-68
2023/11/14 04:28:53;;;;;;;1.80;1.67;;;;;;;8.25;100.00;98761.19;5056745;28;20483;-69
2023/11/14 04:31:23;;;;;;;2.75;2.55;;;;;;;8.22;100.00;98745.97;5056705;28;20118;-70
2023/11/14 04:33:51;;;;;;;2.53;2.30;;;;;;;8.30;100.00;98767.13;5056842;28;20037;-68
2023/11/14 04:36:20;;;;;;;2.72;2.42;;;;;;;8.26;100.00;98748.50;5056562;28;20049;-71
2023/11/14 04:38:49;;;;;;;3.25;2.95;;;;;;;8.28;100.00;98756.94;5056520;28;20137;-69
2023/11/14 04:41:20;;;;;;;4.75;3.15;;;;;;;8.31;100.00;98763.72;5056525;28;20045;-71
2023/11/14 04:43:50;;;;;;;1.77;1.45;;;;;;;8.31;100.00;98745.91;5055255;28;20049;-69
2023/11/14 04:46:18;;;;;;;2.03;1.63;;;;;;;8.28;100.00;98725.63;5056320;28;20037;-69
2023/11/14 04:48:47;;;;;;;1.93;1.73;;;;;;;8.32;100.00;98729.81;5056192;28;20064;-69
2023/11/14 04:51:16;;;;;;;1.38;1.27;;;;;;;8.31;100.00;98761.16;5056004;28;20372;-70
2023/11/14 04:53:45;;;;;;;1.25;1.15;;;;;;;8.30;100.00;98773.03;5056292;28;20053;-71
2023/11/14 04:56:15;;;;;;;2.10;1.87;;;;;;;8.30;100.00;98764.59;5056414;28;20044;-69
2023/11/14 04:58:45;;;;;;;1.38;1.27;;;;;;;8.30;100.00;98754.41;5056129;28;20060;-69
2023/11/14 05:01:16;;;;;;;2.03;1.80;;;;;;;8.30;100.00;98772.22;5056423;28;20139;-69
2023/11/14 05:03:45;;;;;;;3.92;2.78;;;;;;;8.28;100.00;98781.56;5056092;28;20123;-71
2023/11/14 05:06:14;;;;;;;3.20;2.72;;;;;;;8.28;100.00;98796.81;5056408;28;20040;-71
2023/11/14 05:08:42;;;;;;;4.20;3.80;;;;;;;8.27;100.00;98785.78;5055699;28;20087;-71
2023/11/14 05:11:11;;;;;;;1.95;1.85;;;;;;;8.25;100.00;98787.47;5056213;28;20041;-68
2023/11/14 05:13:41;;;;;;;5.33;2.93;;;;;;;8.21;100.00;98812.88;5056103;28;20063;-69
2023/11/14 05:16:11;;;;;;;3.17;2.88;;;;;;;8.23;100.00;98806.13;5056377;28;20057;-70
2023/11/14 05:18:51;;;;;;;3.05;1.40;;;;;;;8.23;100.00;98783.25;5055714;28;20094;-69
2023/11/14 05:21:20;;;;;;;2.03;1.85;;;;;;;8.25;100.00;98776.44;5055882;28;20442;-68
2023/11/14 05:23:49;;;;;;;4.37;1.73;;;;;;;8.21;100.00;98754.41;5055635;28;20051;-69
2023/11/14 05:26:17;;;;;;;1.23;1.13;;;;;;;8.20;100.00;98753.59;5055878;28;20380;-71
2023/11/14 05:28:47;;;;;;;2.22;2.03;;;;;;;8.19;100.00;98761.22;5055391;28;20045;-70
2023/11/14 05:31:17;;;;;;;1.87;1.20;;;;;;;8.19;100.00;98751.06;5055450;28;20045;-71
2023/11/14 05:33:46;;;;;;;0.98;0.90;;;;;;;8.20;100.00;98747.66;5055478;28;20116;-69
2023/11/14 05:36:15;;;;;;;2.37;2.17;;;;;;;8.15;100.00;98774.81;5055716;28;20132;-70
2023/11/14 05:38:45;;;;;;;;;;;;;;;8.06;100.00;98794.31;5055965;28;20069;-69
2023/11/14 05:41:14;;;;;;;1.67;1.58;;;;;;;7.91;100.00;98786.78;5055432;28;19920;-70
2023/11/14 05:43:44;;;;;;;;;;;;;;;7.97;100.00;98816.38;5055903;28;20041;-68
2023/11/14 05:46:12;;;;;;;;;;;;;;;7.89;100.00;98808.78;5055621;28;19921;-70
2023/11/14 05:48:42;;;;;;;1.85;1.75;;;;;;;7.74;100.00;98786.03;5055002;28;20264;-70
2023/11/14 05:51:12;;;;;;;2.97;2.58;;;;;;;7.77;100.00;98798.72;5054845;28;20047;-69
2023/11/14 05:53:42;;;;;;;3.30;2.70;;;;;;;7.76;100.00;98804.63;5055277;28;20056;-69
2023/11/14 05:56:11;;;;;;;2.85;2.28;;;;;;;7.66;100.00;98812.28;5055066;28;20037;-71
2023/11/14 05:58:40;;;;;;;1.70;1.60;;;;;;;7.59;100.00;98801.31;5054893;28;20041;-69
2023/11/14 06:01:10;;;;;;;2.15;2.03;;;;;;;7.66;100.00;98810.59;5054886;28;20068;-69
2023/11/14 06:03:38;;;;;;;0.93;0.93;;;;;;;7.61;99.93;98812.28;5054893;28;20041;-70
2023/11/14 06:06:09;;;;;;;1.15;1.05;;;;;;;7.40;100.00;98792.03;5055408;28;20044;-70
2023/11/14 06:08:38;;;;;;;1.58;1.35;;;;;;;7.46;100.00;98817.44;5054677;28;20052;-69
2023/11/14 06:11:08;;;;;;;1.95;1.83;;;;;;;7.54;100.00;98815.69;5054720;28;20048;-70
2023/11/14 06:13:44;;;;;;;2.65;2.45;;;;;;;7.56;100.00;98821.59;5055168;28;20071;-69
2023/11/14 06:16:13;;;;;;;3.47;2.20;;;;;;;7.56;100.00;98825.88;5054745;28;20036;-70
2023/11/14 06:18:43;;;;;;;4.20;2.40;;;;;;;7.53;100.00;98839.41;5054640;28;20060;-70
2023/11/14 06:21:14;;;;;;;4.18;2.25;;;;;;;7.39;100.00;98843.63;5055420;28;20037;-69
2023/11/14 06:23:42;;;;;;;3.30;2.15;;;;;;;7.37;99.71;98837.72;5054918;28;20072;-70
2023/11/14 06:26:11;;;;;;;3.20;1.83;;;;;;;7.33;100.00;98825.91;5054444;28;20102;-70
2023/11/14 06:28:40;;;;;;;1.43;1.33;;;;;;;7.31;100.00;98820.00;5054297;28;20507;-70
2023/11/14 06:31:09;;;;;;;2.70;2.45;;;;;;;7.27;99.68;98818.31;5054187;28;20041;-70
2023/11/14 06:33:38;;;;;;;3.20;2.40;;;;;;;7.31;100.00;98825.06;5053773;28;20041;-70
2023/11/14 06:36:07;;;;;;;;;;;;;;;7.30;100.00;98841.13;5055147;28;20146;-71
2023/11/14 06:38:37;;;;;;;1.98;1.77;;;;;;;7.31;99.42;98842.84;5054286;28;19921;-71
2023/11/14 06:41:07;;;;;;;3.35;2.58;;;;;;;7.34;100.00;98847.91;5054776;28;20045;-70
2023/11/14 06:43:36;;;;;;;9.85;1.85;;;;;;;7.40;99.58;98858.03;5053141;28;20573;-70
2023/11/14 06:46:05;;;;;;;1.35;1.25;;;;;;;7.36;99.71;98856.38;5054091;28;20036;-69
2023/11/14 06:48:34;;;;;;;5.43;1.67;;;;;;;7.38;99.34;98868.22;5054113;28;20044;-70
2023/11/14 06:51:03;;;;;;;1.80;1.52;;;;;;;7.40;99.51;98861.44;5053963;28;20486;-70
2023/11/14 06:53:31;;;;;;;2.67;2.47;;;;;;;7.42;99.51;98869.03;5037389;28;20041;-73
2023/11/14 06:56:04;;;;;;;2.10;1.95;;;;;;;7.42;99.32;98866.50;5033357;28;20056;-71
2023/11/14 06:58:34;;;;;;;1.45;1.35;;;;;;;7.43;99.29;98866.50;5033912;28;20076;-69
2023/11/14 07:01:03;;;;;;;4.00;2.63;;;;;;;7.47;99.04;98874.09;5034221;28;20124;-69
2023/11/14 07:03:32;;;;;;;4.10;1.48;;;;;;;7.58;99.93;98875.78;5038890;28;20490;-69
2023/11/14 07:06:01;;;;;;;1.27;1.17;;;;;;;7.69;99.40;98881.69;5052296;28;20037;-71
2023/11/14 07:08:30;;;;;;;2.70;2.33;;;;;;;7.75;100.00;98881.66;5053627;28;20037;-71
2023/11/14 07:10:58;;;;;;;5.88;2.88;;;;;;;7.73;99.10;98888.44;5053914;28;20068;-71
2023/11/14 07:13:29;;;;;;;1.80;1.70;;;;;;;7.71;99.69;98885.06;5045239;28;20037;-71
2023/11/14 07:15:57;;;;;;;2.90;2.28;;;;;;;7.74;99.75;98879.13;5041544;28;20051;-68
2023/11/14 07:18:26;;;;;;;3.97;3.25;;;;;;;7.84;99.79;98875.72;5033600;28;20476;-72
2023/11/14 07:20:58;;;;;;;2.20;1.98;;;;;;;7.91;98.94;98873.16;5033334;28;20037;-73
2023/11/14 07:23:27;;;;;;;1.33;1.23;;;;;;;8.03;99.85;98883.28;5034650;28;20068;-68
2023/11/14 07:25:56;;;;;;;6.68;2.67;;;;;;;8.24;100.00;98882.34;5033102;28;20052;-70
2023/11/14 07:28:25;;;;;;;0.85;0.85;;;;;;;8.42;99.67;98877.19;5033544;28;20396;-71
2023/11/14 07:30:56;;;;;;;6.68;2.50;;;;;;;8.52;99.89;98883.06;5033619;28;20051;-70
2023/11/14 07:33:25;;;;;;;1.55;1.35;;;;;;;8.68;99.87;98902.50;5036369;28;20491;-70
2023/11/14 07:35:53;;;;;;;3.63;3.30;;;;;;;8.82;99.57;98907.50;5033600;28;20045;-71
2023/11/14 07:38:22;;;;;;;3.53;2.80;;;;;;;9.00;100.00;98933.66;5039870;28;20065;-69
2023/11/14 07:40:52;;;;;;;2.13;1.95;;;;;;;9.11;100.00;98931.91;5053306;28;20099;-72
2023/11/14 07:43:24;;;;;;;6.03;2.95;;;;;;;9.22;100.00;98930.13;5039508;28;20049;-71
2023/11/14 07:45:53;;;;;;;2.45;2.22;;;;;;;9.32;100.00;98928.34;5036240;28;20517;-71
2023/11/14 07:48:23;;;;;;;3.30;2.77;;;;;;;9.44;99.57;98941.84;5037383;28;20121;-72
2023/11/14 07:50:52;;;;;;;1.52;1.42;;;;;;;9.61;99.78;98948.47;5037284;28;20132;-71
2023/11/14 07:53:25;;;;;;;3.00;2.17;;;;;;;9.76;100.00;98963.63;5036919;28;20037;-71
2023/11/14 07:55:54;;;;;;;2.05;1.95;;;;;;;9.91;99.79;98968.59;5037594;28;20395;-71
2023/11/14 07:58:25;;;;;;;2.53;2.23;;;;;;;9.99;99.45;98966.81;5037418;28;20038;-70
2023/11/14 08:00:54;;;;;;;2.60;1.73;;;;;;;10.14;99.51;98988.78;5039038;28;20291;-70
2023/11/14 08:03:24;;;;;;;2.90;2.10;;;;;;;10.21;99.66;98982.75;5051374;28;20071;-70
2023/11/14 08:05:53;;;;;;;1.13;1.00;;;;;;;10.29;99.24;98976.72;5037442;28;20042;-71
2023/11/14 08:08:22;;;;;;;2.80;2.60;;;;;;;10.30;98.51;98967.34;5037093;28;20120;-71
2023/11/14 08:10:50;;;;;;;2.03;1.83;;;;;;;10.39;98.44;98963.00;5036603;28;20037;-72
2023/11/14 08:13:19;;;;;;;3.03;1.42;;;;;;;10.52;98.18;98969.66;5036914;28;20042;-72
2023/11/14 08:15:48;;;;;;;1.48;1.38;;;;;;;10.60;97.95;98983.16;5036977;28;20095;-70
2023/11/14 08:18:17;;;;;;;3.23;2.93;;;;;;;10.61;97.52;98984.84;5037189;28;20484;-72
2023/11/14 08:20:47;;;;;;;5.28;2.25;;;;;;;10.58;96.60;98996.81;5037117;28;20045;-72
2023/11/14 08:23:17;;;;;;;4.32;2.00;;;;;;;10.60;96.44;99008.69;5035648;28;20042;-70
2023/11/14 08:25:46;;;;;;;2.67;1.63;;;;;;;10.69;96.13;99015.38;5035805;28;20099;-72
2023/11/14 08:28:14;;;;;;;1.73;1.10;;;;;;;10.75;94.93;99022.94;5037417;28;20120;-71
2023/11/14 08:30:43;;;;;;;1.00;0.97;;;;;;;10.90;94.71;99015.09;5035990;28;20047;-73
2023/11/14 08:33:12;;;;;;;0.93;0.93;;;;;;;11.04;94.37;99009.81;5036625;28;20567;-72
2023/11/14 08:35:41;;;;;;;1.75;1.30;;;;;;;11.14;93.79;99002.00;5036445;28;20087;-71
2023/11/14 08:38:12;;;;;;;2.10;2.00;;;;;;;11.25;93.08;98999.31;5036071;28;20041;-72
2023/11/14 08:40:49;;;;;;;1.75;0.57;;;;;;;11.30;91.99;98995.81;5036666;28;20069;-71
2023/11/14 08:43:20;;;;;;;0.80;0.80;;;;;;;11.35;90.61;98993.19;5036518;28;20095;-71
2023/11/14 08:45:49;;;;;;;1.20;1.10;;;;;;;11.38;89.60;98988.03;5036798;28;20128;-71
2023/11/14 08:48:18;;;;;;;0.50;0.50;;;;;;;11.41;88.96;98990.56;5036908;28;20037;-73
2023/11/14 08:50:47;;;;;;;0.98;0.98;;;;;;;11.38;88.47;98991.44;5035852;28;20046;-73
2023/11/14 08:53:21;;;;;;;1.50;1.40;;;;;;;11.44;87.46;99000.72;5035963;28;20453;-74
2023/11/14 08:55:52;;;;;;;0.85;0.70;;;;;;;11.45;87.11;98999.84;5035258;28;20042;-74
2023/11/14 08:58:21;;;;;;;2.63;1.88;;;;;;;11.11;86.88;98945.88;5035724;28;20037;-74
2023/11/14 09:00:50;;;;;;;3.93;2.63;;;;;;;11.47;86.91;98995.56;5036465;28;20056;-74
2023/11/14 09:03:19;;;;;;;1.48;1.38;;;;;;;11.23;86.92;98949.94;5036547;28;20068;-71
2023/11/14 09:05:48;;;;;;;1.67;0.87;;;;;;;11.54;87.22;98997.16;5036581;28;20088;-71
2023/11/14 09:08:17;;;;;;;;;;;;;;;11.61;87.37;98993.66;5040281;28;20041;-71
2023/11/14 09:10:52;;;;;;;4.88;3.03;;;;;;;11.67;87.25;98993.53;5038803;28;19928;-70
2023/11/14 09:13:21;;;;;;;1.83;1.67;;;;;;;11.71;87.71;98995.19;5036273;28;20435;-72
2023/11/14 09:15:50;;;;;;;4.35;2.22;;;;;;;11.71;87.24;99005.44;5047055;28;20395;-71
2023/11/14 09:18:18;;;;;;;6.83;2.10;;;;;;;11.68;87.27;99010.59;5036954;28;20040;-70
2023/11/14 09:20:47;;;;;;;1.67;1.58;;;;;;;11.37;87.44;98963.38;5045420;28;20522;-70
2023/11/14 09:23:16;;;;;;;0.60;0.60;;;;;;;11.65;86.87;99025.09;5055745;28;20123;-72
2023/11/14 09:25:45;;;;;;;1.17;1.07;;;;;;;11.67;86.92;99019.09;5051830;28;20135;-76
2023/11/14 09:28:16;;;;;;;0.82;0.82;;;;;;;11.68;86.82;99019.97;5033335;28;20069;-75
2023/11/14 09:30:48;;;;;;;0.98;0.93;;;;;;;11.70;87.15;99026.75;5035686;28;20045;-74
2023/11/14 09:33:17;;;;;;;1.10;1.00;;;;;;;11.60;86.95;99007.28;5035741;28;20092;-73
2023/11/14 09:35:46;;;;;;;1.48;0.90;;;;;;;11.73;87.17;99016.50;5036249;28;20029;-73
2023/11/14 09:38:15;;;;;;;0.50;0.50;;;;;;;11.73;87.22;99021.59;5035686;28;20045;-74
2023/11/14 09:40:44;;;;;;;1.52;0.95;;;;;;;11.72;87.23;99022.47;5035588;28;20510;-72
2023/11/14 09:43:13;;;;;;;0.83;0.77;;;;;;;11.68;87.06;99010.59;5035240;28;20042;-74
2023/11/14 09:45:45;;;;;;;0.95;0.80;;;;;;;11.80;87.08;99009.56;5035483;28;20053;-74
2023/11/14 09:48:14;;;;;;;1.67;1.42;;;;;;;11.84;87.20;99006.94;5047223;28;20087;-71
2023/11/14 09:50:43;;;;;;;1.13;1.05;;;;;;;11.78;87.18;99001.91;5055398;28;20064;-71
2023/11/14 09:53:13;;;;;;;1.50;1.40;;;;;;;11.75;87.47;98991.75;5054894;28;20048;-72
2023/11/14 09:55:45;;;;;;;1.55;1.45;;;;;;;11.85;86.93;98987.31;5054307;28;20110;-72
2023/11/14 09:58:14;;;;;;;1.67;1.23;;;;;;;11.94;86.69;99003.34;5055620;28;20065;-74
2023/11/14 10:00:45;;;;;;;1.85;1.13;;;;;;;11.85;87.07;99011.16;5054843;28;20051;-73
2023/11/14 10:03:14;;;;;;;1.05;1.00;;;;;;;11.82;87.09;99005.25;5055149;28;20041;-71
2023/11/14 10:05:43;;;;;;;4.17;1.57;;;;;;;11.59;86.75;98957.03;5048683;28;20059;-72
2023/11/14 10:08:14;;;;;;;2.05;1.73;;;;;;;12.03;86.74;99008.31;5034012;28;20271;-71
2023/11/14 10:11:04;;;;;;;1.08;0.98;;;;;;;12.10;86.78;99004.75;5034792;28;20495;-73
2023/11/14 10:13:33;;;;;;;8.25;1.17;;;;;;;12.29;86.31;99001.84;5034568;28;20041;-70
2023/11/14 10:16:20;;;;;;;2.80;1.83;;;;;;;12.52;85.35;99007.41;5034238;28;20079;-71
2023/11/14 10:19:12;;;;;;;1.35;1.20;;;;;;;12.62;84.52;99008.91;5034638;28;20061;-74
2023/11/14 10:21:41;;;;;;;2.38;1.27;;;;;;;12.64;84.16;98986.69;5034532;28;20515;-73
2023/11/14 10:24:13;;;;;;;0.70;0.70;;;;;;;12.73;83.67;98977.09;5033810;28;20068;-69
2023/11/14 10:26:52;;;;;;;1.05;0.95;;;;;;;12.85;84.20;98986.22;5049954;28;20111;-71
2023/11/14 10:29:22;;;;;;;0.88;0.88;;;;;;;12.94;83.89;99006.53;5034469;28;20111;-72
2023/11/14 10:31:52;;;;;;;1.55;1.45;;;;;;;12.97;83.07;98998.78;5034409;28;20057;-71
2023/11/14 10:34:26;;;;;;;1.65;0.75;;;;;;;12.90;83.33;98997.22;5034117;28;20056;-72
2023/11/14 10:36:56;;;;;;;1.15;0.88;;;;;;;12.85;83.08;98996.47;5034393;28;20056;-71
2023/11/14 10:39:25;;;;;;;0.45;0.45;;;;;;;12.90;82.53;98984.44;5034213;28;20051;-71
2023/11/14 10:41:55;;;;;;;3.15;0.77;;;;;;;13.11;82.96;99003.63;5034501;28;20051;-72
2023/11/14 10:44:24;;;;;;;1.15;0.93;;;;;;;13.14;83.70;99008.69;5033465;28;20065;-70
2023/11/14 10:46:55;;;;;;;1.43;1.33;;;;;;;13.11;83.90;99012.16;5034118;28;20041;-72
2023/11/14 10:49:24;;;;;;;1.95;1.58;;;;;;;13.05;83.61;98998.63;5034009;28;20049;-72
2023/11/14 10:51:54;;;;;;;1.65;1.33;;;;;;;13.18;83.70;99008.59;5033956;28;20100;-71
2023/11/14 10:54:24;;;;;;;3.83;2.25;;;;;;;13.27;83.85;98999.84;5034774;28;20531;-72
2023/11/14 10:56:53;;;;;;;1.20;1.10;;;;;;;13.43;84.01;98994.38;5049245;28;20049;-75
2023/11/14 10:59:30;;;;;;;1.65;1.13;;;;;;;13.54;83.47;99009.47;5037250;28;20049;-70
2023/11/14 11:02:01;;;;;;;0.50;0.50;;;;;;;13.23;82.90;98958.09;5047597;28;20055;-72
2023/11/14 11:04:33;;;;;;;1.05;0.93;;;;;;;13.50;83.03;98996.78;5049526;28;20055;-73
2023/11/14 11:07:02;;;;;;;0.75;0.70;;;;;;;13.41;82.83;98998.66;5033727;28;20052;-71
2023/11/14 11:09:31;;;;;;;0.60;0.60;;;;;;;13.35;82.75;98987.72;5033844;28;20399;-72
2023/11/14 11:12:03;;;;;;;0.93;0.90;;;;;;;13.21;82.81;98979.50;5033995;28;20033;-74
2023/11/14 11:14:34;;;;;;;1.13;0.93;;;;;;;13.16;82.50;98976.19;5033599;28;20061;-72
2023/11/14 11:17:05;;;;;;;1.20;1.10;;;;;;;13.06;82.57;98969.59;5033961;28;20099;-74
2023/11/14 11:19:35;;;;;;;0.68;0.68;;;;;;;13.05;82.45;98966.13;5032992;28;20052;-73
2023/11/14 11:22:06;;;;;;;1.83;1.67;;;;;;;13.00;82.38;98965.44;5033732;28;20052;-72
2023/11/14 11:24:35;;;;;;;1.27;0.70;;;;;;;12.98;82.87;98977.41;5033974;28;20072;-73
2023/11/14 11:27:11;;;;;;;3.22;0.88;;;;;;;12.94;82.86;98983.47;5033866;28;20069;-73
2023/11/14 11:29:54;;;;;;;0.68;0.60;;;;;;;12.93;82.50;98984.38;5042978;28;20044;-72
2023/11/14 11:32:28;;;;;;;4.65;1.20;;;;;;;12.88;82.65;98988.75;5053325;28;20041;-75
2023/11/14 11:35:19;;;;;;;0.70;0.70;;;;;;;12.84;82.84;98999.91;5038346;28;20041;-74
2023/11/14 11:37:52;;;;;;;1.23;1.13;;;;;;;12.72;82.33;99001.00;5033999;28;20045;-72
2023/11/14 11:40:25;;;;;;;0.98;0.75;;;;;;;12.78;82.58;99020.53;5033759;28;20491;-73
2023/11/14 11:42:56;;;;;;;0.80;0.65;;;;;;;12.76;82.54;99012.03;5033452;28;20056;-74
2023/11/14 11:45:36;;;;;;;0.82;0.50;;;;;;;12.75;82.92;99005.22;5038738;28;20129;-73
2023/11/14 11:48:26;;;;;;;0.45;0.45;;;;;;;12.72;83.61;99005.28;5033596;28;20057;-71
2023/11/14 11:50:55;;;;;;;0.50;0.50;;;;;;;12.66;83.94;99020.78;5032369;28;20435;-72